Latest Weather Observations for Troughton Island

IDW60801

Issued at 6:02 pm WST Monday 26 January 2015 (issued every 30 minutes, with the page automatically refreshed every 10 minutes)

About weather observations | Map of weather stations | Latest weather observations for WA | Other Formats
Station Details ID: 001007 Name: TROUGHTON ISLAND Lat: -13.75 Lon: 126.15 Height: 6.0 m
Data from the previous 72 hours. | See also: Recent months at Troughton Island
Date/Time
WST
Temp
°C
App
Temp
°C
Dew
Point
Rel
Hum
%
Delta-T
°C
Wind Press
QNH
hPa
Press
MSL
hPa
Rain
since 9 am
mm
Dir
 
Spd
km/h
Gust
km/h
Spd
kts
Gust
kts
26/06:00pm 28.2 - 28.4 - - SW 33 41 18 22 1007.6 1007.5 0.0
26/05:30pm 29.8 - 31.0 - - WSW 20 22 11 12 1007.4 - 0.0
26/05:00pm 30.0 - 30.9 - - WSW 17 19 9 10 1007.2 - 0.0
26/04:30pm 30.7 - 31.6 - - WSW 17 20 9 11 1006.6 - 0.0
26/04:00pm 30.8 - 31.5 - - W 19 22 10 12 1006.1 - 0.0
26/03:30pm 31.3 - 31.8 - - W 22 28 12 15 1006.1 - 0.0
26/03:00pm 31.3 - 31.6 - - W 22 26 12 14 1006.1 1006.0 0.0
26/02:30pm 31.6 - 32.1 - - W 24 30 13 16 1006.4 - 0.0
26/02:00pm 31.6 - 31.9 - - W 24 28 13 15 1006.7 - 0.0
26/01:30pm 31.6 38.0 31.6 100 0.0 W 26 30 14 16 1007.1 - 0.0
26/01:00pm 31.7 38.6 31.3 98 0.3 W 22 26 12 14 1007.9 - 0.0
26/12:30pm 32.0 - 32.4 - - W 24 28 13 15 1008.1 - 0.0
26/12:00pm 32.2 39.3 32.0 99 0.2 W 24 30 13 16 1008.6 1008.5 0.0
26/11:30am 32.0 - 32.2 - - W 24 30 13 16 1008.9 - 0.0
26/11:00am 31.8 - 32.2 - - W 24 28 13 15 1009.2 - 0.0
26/10:30am 31.7 - 32.4 - - W 24 30 13 16 1009.6 - 0.0
26/10:00am 30.3 - 31.5 - - W 26 32 14 17 1010.1 - 0.0
26/09:30am 30.0 - 31.2 - - W 24 28 13 15 1010.3 - 0.0
26/09:00am 31.0 - 31.5 - - W 20 24 11 13 1010.8 1010.7 0.0
26/08:30am 29.9 - 30.9 - - W 20 24 11 13 1010.9 - 0.0
26/08:00am 30.4 - 31.3 - - WSW 19 20 10 11 1010.3 - 0.0
26/07:30am 30.0 - 31.2 - - W 20 24 11 13 1010.1 - 0.0
26/07:00am 29.5 - 30.7 - - W 20 24 11 13 1010.1 - 0.0
26/06:30am 29.0 - 30.2 - - W 22 26 12 14 1009.6 - 0.0
26/06:00am 28.7 - 29.9 - - W 19 22 10 12 1009.6 1009.5 0.0
26/05:30am 28.6 - 29.8 - - W 20 24 11 13 1009.2 - 0.0
26/05:00am 28.6 - 29.8 - - W 22 24 12 13 1008.8 - 0.0
26/04:30am 28.6 - 29.8 - - W 22 26 12 14 1008.5 - 0.0
26/04:00am 28.6 - 29.8 - - W 26 28 14 15 1008.1 - 0.0
26/03:30am 28.6 - 29.8 - - W 26 30 14 16 1007.8 - 0.0
26/03:00am 28.6 - 29.8 - - W 24 28 13 15 1007.8 1007.7 0.0
26/02:30am 28.6 - 29.8 - - W 26 30 14 16 1007.6 - 0.0
26/02:00am 28.6 - 29.8 - - W 26 28 14 15 1007.4 - 0.0
26/01:30am 28.6 - 29.8 - - W 22 26 12 14 1007.7 - 0.0
26/01:00am 28.6 - 29.8 - - W 24 30 13 16 1007.9 - 0.0
26/12:30am 28.6 - 29.8 - - W 26 30 14 16 1007.8 - 0.0
26/12:00am 28.6 - 29.8 - - WNW 28 32 15 17 1008.3 1008.2 0.0
 
Date/Time
WST
Temp
°C
App
Temp
°C
Dew
Point
Rel
Hum
%
Delta-T
°C
Wind Press
QNH
hPa
Press
MSL
hPa
Rain
since 9 am
mm
Dir
 
Spd
km/h
Gust
km/h
Spd
kts
Gust
kts
25/11:30pm 28.7 - 29.9 - - WNW 26 30 14 16 1008.8 - 0.0
25/11:00pm 28.7 - 29.9 - - W 24 28 13 15 1009.1 - 0.0
25/10:30pm 28.7 - 29.9 - - WNW 24 26 13 14 1009.5 - 0.0
25/10:00pm 28.7 - 29.9 - - WNW 22 28 12 15 1009.6 - 0.0
25/09:30pm 28.7 - 29.9 - - WNW 24 28 13 15 1009.2 - 0.0
25/09:00pm 28.8 - 30.0 - - W 26 30 14 16 1008.5 1008.4 0.0
25/08:30pm 28.8 - 30.0 - - W 28 32 15 17 1008.1 - 0.0
25/08:00pm 28.9 - 30.1 - - WNW 28 33 15 18 1007.9 - 0.0
25/07:30pm 29.0 - 30.2 - - W 24 28 13 15 1008.3 - 0.0
25/07:00pm 29.0 - 30.2 - - W 26 28 14 15 1008.2 - 0.0
25/06:30pm 29.1 - 30.3 - - W 26 30 14 16 1008.3 - 0.0
25/06:00pm 29.4 - 30.6 - - W 30 33 16 18 1007.9 1007.8 0.0
25/05:30pm 29.8 - 31.0 - - W 30 33 16 18 1007.3 - 0.0
25/05:00pm 30.2 - 31.4 - - W 30 33 16 18 1007.2 - 0.0
25/04:30pm 30.4 - 31.6 - - W 32 37 17 20 1007.0 - 0.0
25/04:00pm 30.6 - 31.5 - - W 32 37 17 20 1006.9 - 0.0
25/03:30pm 31.0 - 31.9 - - W 32 35 17 19 1006.8 - 0.0
25/03:00pm 31.3 - 32.0 - - W 30 35 16 19 1007.1 1007.0 0.0
25/02:30pm 31.6 - 32.3 - - W 28 32 15 17 1007.8 - 0.0
25/02:00pm 31.5 - 31.8 - - W 28 33 15 18 1008.1 - 0.0
25/01:30pm 31.4 - 31.7 - - W 30 35 16 19 1008.6 - 0.0
25/01:00pm 32.0 - 32.7 - - W 26 32 14 17 1009.1 - 0.0
25/12:30pm 31.7 - 32.1 - - W 26 32 14 17 1009.4 - 0.0
25/12:00pm 31.9 - 32.1 - - W 28 30 15 16 1009.8 1009.7 0.0
25/11:30am 31.7 38.2 31.7 100 0.0 W 26 32 14 17 1010.2 - 0.0
25/11:00am 31.8 - 32.3 - - W 26 33 14 18 1010.2 - 0.0
25/10:30am 31.6 - 31.9 - - W 26 32 14 17 1010.4 - 0.0
25/10:00am 30.8 - 31.8 - - W 26 32 14 17 1010.4 - 0.0
25/09:30am 31.0 - 31.9 - - W 28 32 15 17 1010.4 - 0.0
25/09:00am 30.8 - 31.8 - - WNW 26 32 14 17 1010.2 1010.1 0.0
25/08:30am 30.2 - 31.4 - - W 26 30 14 16 1010.1 - 0.0
25/08:00am 30.1 - 30.8 - - WNW 26 30 14 16 1009.9 - 0.0
25/07:30am 30.1 - 31.1 - - WNW 24 28 13 15 1009.4 - 0.0
25/07:00am 29.5 - 30.7 - - WNW 26 30 14 16 1009.1 - 0.0
25/06:30am 29.0 - 30.2 - - WNW 22 26 12 14 1008.8 - 0.0
25/06:00am 28.8 - 30.0 - - WNW 22 26 12 14 1008.6 1008.5 0.0
25/05:30am 28.5 - 29.7 - - WNW 22 26 12 14 1008.3 - 0.0
25/05:00am 28.6 - 29.8 - - W 22 26 12 14 1007.5 - 0.0
25/04:30am 28.5 - 29.7 - - W 22 26 12 14 1007.2 - 0.0
25/04:00am 28.6 - 29.8 - - W 24 28 13 15 1006.7 - 0.0
25/03:30am 28.6 - 29.8 - - W 26 30 14 16 1006.6 - 0.0
25/03:00am 28.8 - 30.0 - - W 28 33 15 18 1006.6 1006.5 0.0
25/02:30am 28.6 - 29.8 - - W 24 32 13 17 1006.6 - 0.0
25/02:00am 28.7 - 29.9 - - W 28 33 15 18 1006.9 - 0.0
25/01:30am 28.8 - 30.0 - - WSW 32 37 17 20 1007.4 - 0.0
25/01:00am 28.8 - 30.0 - - WSW 30 35 16 19 1007.7 - 0.0
25/12:30am 28.9 - 30.1 - - W 30 35 16 19 1007.9 - 0.0
25/12:00am 28.9 - 30.1 - - W 28 35 15 19 1008.0 1007.9 0.0
 
Date/Time
WST
Temp
°C
App
Temp
°C
Dew
Point
Rel
Hum
%
Delta-T
°C
Wind Press
QNH
hPa
Press
MSL
hPa
Rain
since 9 am
mm
Dir
 
Spd
km/h
Gust
km/h
Spd
kts
Gust
kts
24/11:30pm 28.9 - 30.1 - - W 28 30 15 16 1008.4 - 0.0
24/11:00pm 29.1 - 30.3 - - W 28 32 15 17 1008.7 - 0.0
24/10:30pm 29.0 - 30.2 - - W 26 32 14 17 1008.9 - 0.0
24/10:00pm 28.9 - 30.1 - - W 28 32 15 17 1009.0 - 0.0
24/09:30pm 29.0 - 30.2 - - W 28 33 15 18 1009.0 - 0.0
24/09:00pm 29.0 - 30.2 - - W 28 33 15 18 1008.7 1008.6 0.0
24/08:30pm 29.1 - 30.3 - - W 28 33 15 18 1008.9 - 0.0
24/08:00pm 29.2 - 30.4 - - W 30 37 16 20 1008.8 - 0.0
24/07:30pm 29.2 - 30.4 - - WNW 32 35 17 19 1008.1 - 0.0
24/07:00pm 29.2 - 30.4 - - W 26 30 14 16 1007.8 - 0.0
24/06:30pm 29.3 - 30.5 - - W 28 32 15 17 1007.6 - 0.0
24/06:00pm 29.5 - 30.7 - - W 32 35 17 19 1007.8 1007.7 0.0
24/05:30pm 30.2 - 31.4 - - W 30 35 16 19 1007.1 - 0.0
24/05:00pm 30.4 - 31.4 - - W 32 39 17 21 1006.2 - 0.0
24/04:30pm 30.7 - 31.7 - - W 33 39 18 21 1005.7 - 0.0
24/04:00pm 30.7 - 31.6 - - W 35 39 19 21 1005.2 - 0.0
24/03:30pm 31.0 - 31.9 - - W 33 39 18 21 1005.6 - 0.0
24/03:00pm 31.2 - 31.9 - - W 32 39 17 21 1005.9 1005.8 0.0
24/02:30pm 31.7 - 32.7 - - W 30 35 16 19 1006.2 - 0.0
24/02:00pm 31.5 - 32.0 - - WSW 30 35 16 19 1006.3 - 0.0
24/01:30pm 31.4 - 32.3 - - WSW 30 35 16 19 1006.4 - 0.0
24/01:00pm 30.8 - 31.7 - - W 32 37 17 20 1006.7 - 0.0
24/12:30pm 31.4 - 32.4 - - W 28 33 15 18 1007.0 - 0.0
24/12:00pm 31.4 - 32.3 - - W 28 35 15 19 1007.5 1007.4 0.0
24/11:30am 31.7 - 32.4 - - WSW 30 35 16 19 1007.6 - 0.0
24/11:00am 31.2 - 32.1 - - WSW 28 33 15 18 1007.7 - 0.0
24/10:30am 30.6 - 31.6 - - WSW 30 33 16 18 1008.1 - 0.0
24/10:00am 30.4 - 31.6 - - WSW 28 33 15 18 1008.5 - 0.0
24/09:30am 30.5 - 31.7 - - WSW 30 35 16 19 1008.5 - 0.0
24/09:00am 30.6 - 31.8 - - WSW 28 33 15 18 1008.4 1008.3 0.0
24/08:30am 30.2 - 31.4 - - WSW 26 32 14 17 1008.2 - 0.0
24/08:00am 29.5 - 30.7 - - WSW 30 35 16 19 1008.0 - 0.0
24/07:30am 29.2 - 30.4 - - WSW 30 35 16 19 1007.9 - 0.0
24/07:00am 29.0 - 30.2 - - WSW 33 37 18 20 1007.8 - 0.0
24/06:30am 28.8 - 30.0 - - WSW 33 41 18 22 1007.5 - 0.0
24/06:00am 28.8 - 30.0 - - W 32 39 17 21 1007.3 1007.2 0.0
24/05:30am 28.7 - 29.9 - - W 33 39 18 21 1007.0 - 0.0
24/05:00am 28.7 - 29.9 - - W 35 43 19 23 1006.5 - 0.0
24/04:30am 28.7 - 29.9 - - W 35 43 19 23 1006.4 - 0.0
24/04:00am 28.8 - 30.0 - - W 37 43 20 23 1006.3 - 0.0
24/03:30am 28.8 - 30.0 - - W 35 41 19 22 1006.4 - 0.0
24/03:00am 28.9 - 30.1 - - W 35 43 19 23 1006.4 1006.3 0.0
24/02:30am 28.9 - 30.1 - - W 33 39 18 21 1006.6 - 0.0
24/02:00am 29.0 - 30.2 - - W 33 37 18 20 1006.8 - 0.0
24/01:30am 28.9 - 30.1 - - W 32 37 17 20 1007.2 - 0.0
24/01:00am 28.9 - 30.1 - - W 32 37 17 20 1007.3 - 0.0
24/12:30am 29.0 - 30.2 - - W 32 37 17 20 1007.5 - 0.0
24/12:00am 28.9 - 30.1 - - W 32 39 17 21 1007.6 1007.5 0.0
 
Date/Time
WST
Temp
°C
App
Temp
°C
Dew
Point
Rel
Hum
%
Delta-T
°C
Wind Press
QNH
hPa
Press
MSL
hPa
Rain
since 9 am
mm
Dir
 
Spd
km/h
Gust
km/h
Spd
kts
Gust
kts
23/11:30pm 28.9 - 30.1 - - W 32 39 17 21 1007.7 - 0.0
23/11:00pm 29.0 - 30.2 - - W 32 39 17 21 1008.2 - 0.0
23/10:30pm 29.0 - 30.2 - - W 28 37 15 20 1008.2 - 0.0
23/10:00pm 29.0 - 30.2 - - WSW 33 39 18 21 1008.0 - 0.0
23/09:30pm 29.1 - 30.3 - - W 35 41 19 22 1008.1 - 0.0
23/09:00pm 29.0 - 30.2 - - W 35 41 19 22 1008.1 1008.0 0.0
23/08:30pm 29.1 - 30.3 - - W 33 41 18 22 1008.2 - 0.0
23/08:00pm 29.0 - 30.2 - - W 35 44 19 24 1008.2 - 0.0
23/07:30pm 29.0 - 30.2 - - WSW 35 43 19 23 1007.4 - 0.0
23/07:00pm 29.1 - 30.3 - - W 35 41 19 22 1007.3 - 0.0
23/06:30pm 29.2 - 30.4 - - W 37 44 20 24 1006.8 - 0.0

Other Formats:

Comma delimited format used in spreadsheet applications
http://www.bom.gov.au/fwo/IDW60801/IDW60801.94102.axf

JavaScript Object Notation format (JSON) in row-major order
http://www.bom.gov.au/fwo/IDW60801/IDW60801.94102.json